Time;durP1;ratioP1;P1;durP2;ratioP2;P2;SDS_P1;SDS_P2;PMS_P1;PMS_P2;Temp;Humidity;BMP_temperature;BMP_pressure;BME280_temperature;BME280_humidity;BME280_pressure;Samples;Min_cycle;Max_cycle;Signal;HPM_P1;HPM_P2
2022/10/21 05:33:04;;;;;;;;;2.33;2.33;;;;;20.06;63.38;100314.78;5115277;27;45649;-73
2022/10/21 05:35:29;;;;;;;;;2.00;2.00;;;;;20.18;63.16;100315.38;5003690;27;45544;-73
2022/10/21 05:37:55;;;;;;;;;3.00;2.00;;;;;20.38;63.21;100316.03;5004098;27;45462;-75
2022/10/21 05:40:20;;;;;;;;;2.00;2.00;;;;;20.60;62.95;100311.13;5001486;27;45460;-73
2022/10/21 05:42:46;;;;;;;;;2.00;2.00;;;;;20.89;62.61;100319.91;5018888;27;47090;-74
2022/10/21 05:45:11;;;;;;;;;3.00;1.00;;;;;21.12;61.65;100314.78;5003325;27;52367;-73
2022/10/21 05:47:39;;;;;;;;;2.67;2.67;;;;;21.40;61.49;100319.94;5004079;27;45612;-74
2022/10/21 05:50:05;;;;;;;;;1.00;1.00;;;;;21.65;60.52;100321.81;5002674;27;45674;-73
2022/10/21 05:52:30;;;;;;;;;1.00;1.00;;;;;21.92;60.11;100328.84;5017846;27;46319;-72
2022/10/21 05:54:55;;;;;;;;;1.33;1.00;;;;;22.16;59.57;100343.38;5001154;27;47456;-73
2022/10/21 05:57:21;;;;;;;;;0.33;0.33;;;;;22.36;59.38;100360.06;5013273;27;58495;-73
2022/10/21 05:59:46;;;;;;;;;3.00;1.00;;;;;22.54;58.96;100359.09;5005557;27;45480;-73
2022/10/21 06:02:11;;;;;;;;;2.00;2.00;;;;;22.74;58.18;100364.97;4995903;27;47259;-71
2022/10/21 06:04:36;;;;;;;;;3.00;3.00;;;;;22.95;57.99;100360.84;4997346;27;45621;-73
2022/10/21 06:07:02;;;;;;;;;2.00;1.00;;;;;23.12;57.91;100358.06;4999603;27;45770;-73
2022/10/21 06:09:27;;;;;;;;;3.33;3.33;;;;;23.27;57.63;100367.16;5001004;27;45573;-73
2022/10/21 06:11:52;;;;;;;;;4.00;3.00;;;;;23.37;57.11;100360.69;5002542;27;47089;-75
2022/10/21 06:14:19;;;;;;;;;3.67;2.67;;;;;23.59;56.71;100372.63;5013908;27;45856;-74
2022/10/21 06:16:44;;;;;;;;;3.00;3.00;;;;;23.74;56.12;100377.28;4997368;27;47509;-77
2022/10/21 06:19:10;;;;;;;;;2.33;2.33;;;;;23.87;55.92;100390.25;5005009;27;46304;-73
2022/10/21 06:21:35;;;;;;;;;3.67;2.00;;;;;23.99;55.55;100386.06;4997608;27;45548;-75
2022/10/21 06:24:00;;;;;;;;;2.00;1.67;;;;;24.07;55.20;100387.88;4994811;27;45540;-74
2022/10/21 06:26:25;;;;;;;;;3.67;3.00;;;;;24.20;55.24;100406.31;4997126;27;55092;-76
2022/10/21 06:28:51;;;;;;;;;2.67;2.67;;;;;24.26;54.76;100407.44;4998615;27;45561;-77
2022/10/21 06:31:19;;;;;;;;;3.00;3.00;;;;;24.38;54.46;100426.81;4997467;27;55399;-77
2022/10/21 06:33:44;;;;;;;;;3.00;3.00;;;;;24.45;54.39;100436.75;4998999;27;45577;-76
2022/10/21 06:36:10;;;;;;;;;3.00;3.00;;;;;24.51;54.03;100453.34;4996766;27;45381;-76
2022/10/21 06:38:35;;;;;;;;;2.67;2.67;;;;;24.56;53.75;100448.22;4996757;27;56242;-76
2022/10/21 06:41:11;;;;;;;;;2.00;2.00;;;;;24.61;53.85;100445.81;4994824;27;45866;-79
2022/10/21 06:43:36;;;;;;;;;2.00;2.00;;;;;24.68;53.68;100451.34;4987372;27;45743;-76
2022/10/21 06:46:08;;;;;;;;;2.67;2.00;;;;;24.71;53.21;100440.97;4981976;27;46830;-76
2022/10/21 06:48:33;;;;;;;;;0.33;0.33;;;;;24.74;53.34;100465.00;4986600;27;45656;-75
2022/10/21 06:51:02;;;;;;;;;1.67;1.67;;;;;24.76;53.08;100475.69;4987616;27;46954;-76
2022/10/21 06:53:28;;;;;;;;;1.33;1.33;;;;;24.77;53.11;100461.06;4983881;27;45419;-76
2022/10/21 06:56:15;;;;;;;;;2.00;2.00;;;;;24.81;53.03;100448.00;4983792;27;45536;-75
2022/10/21 06:58:47;;;;;;;;;2.00;2.00;;;;;24.78;53.05;100451.06;4986541;27;45625;-76
2022/10/21 07:01:19;;;;;;;;;2.00;2.00;;;;;24.76;53.09;100464.00;4985803;27;45313;-76
2022/10/21 07:03:44;;;;;;;;;2.00;1.67;;;;;24.79;53.15;100480.75;5003968;27;45425;-78
2022/10/21 07:06:10;;;;;;;;;1.67;1.67;;;;;24.82;53.00;100477.69;4993554;27;45366;-77
2022/10/21 07:08:36;;;;;;;;;2.67;1.67;;;;;24.84;52.67;100483.78;4994804;27;45418;-79
2022/10/21 07:11:02;;;;;;;;;2.67;2.67;;;;;24.90;52.29;100489.50;4991106;27;45936;-75
2022/10/21 07:13:28;;;;;;;;;2.00;2.00;;;;;24.92;52.56;100501.00;4993312;27;45487;-79
2022/10/21 07:15:59;;;;;;;;;2.00;2.00;;;;;24.86;52.69;100518.91;5062245;27;45371;-82
2022/10/21 07:18:24;;;;;;;;;3.33;2.00;;;;;24.82;52.37;100523.81;5006558;27;46003;-90
2022/10/21 07:20:50;;;;;;;;;2.00;1.67;;;;;24.81;52.99;100537.56;5000669;27;45489;-90
2022/10/21 07:23:16;;;;;;;;;4.00;1.00;;;;;24.79;53.01;100524.19;4999101;27;45430;-88
2022/10/21 07:25:41;;;;;;;;;3.00;3.00;;;;;24.79;52.68;100524.19;4993511;27;45505;-85
2022/10/21 07:28:06;;;;;;;;;3.00;1.33;;;;;24.80;52.72;100511.47;4993966;27;46556;-87
2022/10/21 07:30:38;;;;;;;;;3.00;2.00;;;;;24.79;52.77;100488.03;4993287;27;45415;-86
2022/10/21 07:33:03;;;;;;;;;4.00;4.00;;;;;24.82;52.74;100504.81;4991026;27;46098;-88
2022/10/21 07:35:29;;;;;;;;;3.67;3.00;;;;;24.89;52.38;100504.13;4995088;27;47169;-92
2022/10/21 07:37:54;;;;;;;;;4.00;2.33;;;;;24.91;52.51;100512.91;5000628;27;45352;-88
2022/10/21 07:40:19;;;;;;;;;3.33;3.00;;;;;24.93;52.40;100505.44;4999366;27;49193;-81
2022/10/21 07:42:45;;;;;;;;;4.00;4.00;;;;;24.97;51.97;100506.75;5052887;27;52885;-82
2022/10/21 07:45:10;;;;;;;;;5.00;3.00;;;;;24.95;52.34;100503.38;5047738;27;45727;-90
2022/10/21 07:47:35;;;;;;;;;2.00;2.00;;;;;24.95;51.75;100515.09;5046800;27;45329;-85
2022/10/21 07:50:01;;;;;;;;;2.67;2.67;;;;;24.94;52.24;100518.84;4999537;27;45650;-77
2022/10/21 07:52:26;;;;;;;;;2.33;2.33;;;;;24.95;52.06;100520.50;5042584;27;45785;-81
2022/10/21 07:54:51;;;;;;;;;3.67;3.67;;;;;24.95;52.08;100527.81;4991777;27;45445;-82
2022/10/21 07:57:17;;;;;;;;;4.33;3.33;;;;;25.00;51.84;100519.94;4992449;27;45324;-82
2022/10/21 07:59:42;;;;;;;;;2.00;2.00;;;;;24.98;51.87;100519.31;4993110;27;51505;-84
2022/10/21 08:02:12;;;;;;;;;3.00;2.00;;;;;24.93;51.90;100524.44;4992527;27;45598;-84
2022/10/21 08:04:38;;;;;;;;;3.33;3.00;;;;;24.91;51.51;100521.91;4993871;27;45410;-84
2022/10/21 08:07:04;;;;;;;;;2.00;2.00;;;;;24.87;51.50;100515.16;4993102;27;45381;-86
2022/10/21 08:09:29;;;;;;;;;2.00;2.00;;;;;24.86;51.88;100521.63;5011524;27;46186;-82
2022/10/21 08:11:55;;;;;;;;;3.00;3.00;;;;;24.88;52.06;100527.69;4992474;27;46566;-95
2022/10/21 08:14:21;;;;;;;;;3.00;3.00;;;;;24.89;51.89;100520.41;4993045;27;45751;-79
2022/10/21 08:16:50;;;;;;;;;1.33;1.33;;;;;24.95;51.73;100539.53;4995688;27;45585;-80
2022/10/21 08:19:18;;;;;;;;;2.00;2.00;;;;;25.00;51.46;100545.25;4992277;27;45372;-79
2022/10/21 08:21:44;;;;;;;;;2.00;2.00;;;;;25.09;51.51;100534.31;4990750;27;45414;-79
2022/10/21 08:24:09;;;;;;;;;2.33;2.00;;;;;25.15;51.11;100543.56;4993285;27;45371;-80
2022/10/21 08:26:34;;;;;;;;;4.00;3.00;;;;;25.19;51.17;100544.91;4992105;27;48230;-79
2022/10/21 08:29:02;;;;;;;;;4.00;4.00;;;;;25.19;50.94;100534.03;4993567;27;45323;-79
2022/10/21 08:31:27;;;;;;;;;3.00;3.00;;;;;25.23;51.42;100543.50;4994848;27;45656;-80
2022/10/21 08:33:53;;;;;;;;;3.00;3.00;;;;;25.26;51.21;100540.44;4992327;28;45462;-79
2022/10/21 08:36:23;;;;;;;;;2.33;2.33;;;;;25.29;51.32;100544.66;4993597;27;45659;-79
2022/10/21 08:38:48;;;;;;;;;4.00;4.00;;;;;25.33;50.56;100552.22;4994064;27;45997;-83
2022/10/21 08:41:29;;;;;;;;;3.00;3.00;;;;;25.34;51.09;100548.47;4992684;27;45574;-88
2022/10/21 08:43:59;;;;;;;;;3.00;3.00;;;;;25.35;50.52;100547.47;4980881;28;45665;-86
2022/10/21 08:46:30;;;;;;;;;1.00;1.00;;;;;25.29;50.48;100555.50;4991701;27;45388;-89
2022/10/21 08:49:10;;;;;;;;;3.00;2.00;;;;;25.21;50.74;100559.97;5012088;27;45487;-84
2022/10/21 08:51:40;;;;;;;;;3.00;1.67;;;;;25.13;50.97;100550.03;5020908;27;45391;-87
2022/10/21 08:54:16;;;;;;;;;3.67;3.00;;;;;25.12;50.92;100552.94;4993395;28;45450;-83
2022/10/21 08:56:42;;;;;;;;;3.33;3.33;;;;;25.10;51.57;100552.28;4992927;27;45426;-82
2022/10/21 08:59:18;;;;;;;;;2.00;2.00;;;;;25.12;51.52;100553.78;5023850;27;46581;-83
2022/10/21 09:01:54;;;;;;;;;2.67;2.67;;;;;25.16;50.95;100558.84;5021440;27;45409;-84
2022/10/21 09:05:02;;;;;;;;;2.67;2.00;;;;;25.22;51.40;100556.22;4992070;27;45318;-83
2022/10/21 09:08:04;;;;;;;;;1.00;1.00;;;;;25.28;50.98;100562.81;4968947;28;45420;-82
2022/10/21 09:10:55;;;;;;;;;3.67;2.67;;;;;25.34;51.51;100556.63;4962142;28;45730;-83
2022/10/21 09:13:37;;;;;;;;;3.67;2.67;;;;;25.39;51.45;100559.63;4970839;28;45450;-83
2022/10/21 09:16:39;;;;;;;;;1.33;1.33;;;;;25.46;51.14;100554.28;4968779;28;45813;-80
2022/10/21 09:19:34;;;;;;;;;2.33;2.33;;;;;25.57;50.54;100552.16;4967269;28;46551;-79
2022/10/21 09:22:30;;;;;;;;;2.33;2.33;;;;;25.68;50.26;100551.72;4966277;28;46423;-93
2022/10/21 09:25:22;;;;;;;;;5.67;5.33;;;;;25.75;50.50;100554.53;4969446;28;45766;-93
2022/10/21 09:27:48;;;;;;;;;3.00;3.00;;;;;25.76;50.07;100559.75;4980235;28;45678;-90
2022/10/21 09:30:17;;;;;;;;;3.67;3.67;;;;;25.69;50.56;100564.28;5028917;28;45519;-83
2022/10/21 09:32:48;;;;;;;;;3.67;3.67;;;;;25.64;50.54;100562.13;4951994;28;47302;-82
2022/10/21 09:35:25;;;;;;;;;3.67;3.00;;;;;25.61;50.29;100550.78;4995344;28;45512;-84
2022/10/21 09:38:02;;;;;;;;;3.67;2.67;;;;;25.63;50.83;100552.28;4997439;28;45542;-84
2022/10/21 09:40:29;;;;;;;;;5.00;2.33;;;;;25.67;50.74;100550.03;4966740;28;45572;-83
2022/10/21 09:42:58;;;;;;;;;2.67;2.67;;;;;25.69;50.29;100560.69;4975260;28;45549;-82
2022/10/21 09:45:38;;;;;;;;;4.00;2.67;;;;;25.72;50.35;100555.75;4991119;28;45649;-82
2022/10/21 09:48:29;;;;;;;;;1.00;1.00;;;;;25.76;50.54;100556.22;5041853;27;45457;-88
2022/10/21 09:51:03;;;;;;;;;3.67;3.00;;;;;25.78;50.36;100559.56;5030073;28;45485;-89
2022/10/21 09:53:42;;;;;;;;;3.67;3.67;;;;;25.78;50.44;100565.88;5029409;28;48534;-81
2022/10/21 09:56:16;;;;;;;;;2.33;2.33;;;;;25.82;49.98;100562.78;5027390;28;46185;-92
2022/10/21 09:58:41;;;;;;;;;4.00;3.00;;;;;25.82;50.12;100560.88;5032266;28;45529;-91
2022/10/21 10:01:07;;;;;;;;;3.00;3.00;;;;;25.86;50.16;100562.19;5031778;28;45525;-93
2022/10/21 10:03:35;;;;;;;;;3.00;3.00;;;;;25.83;49.82;100545.44;5030800;28;45744;-94
2022/10/21 10:06:03;;;;;;;;;2.00;2.00;;;;;25.85;49.70;100555.09;5023008;28;45500;-89
2022/10/21 10:08:36;;;;;;;;;3.67;3.00;;;;;25.82;50.04;100557.34;5032027;28;45515;-89
2022/10/21 10:11:11;;;;;;;;;2.33;2.33;;;;;25.80;50.08;100562.97;5022144;28;45487;-89
2022/10/21 10:13:39;;;;;;;;;3.00;3.00;;;;;25.81;49.78;100550.19;5028258;28;47508;-84
2022/10/21 10:16:25;;;;;;;;;2.67;2.00;;;;;25.76;49.89;100551.59;5028829;28;45845;-85
2022/10/21 10:18:52;;;;;;;;;4.33;3.00;;;;;25.73;49.97;100549.28;5033290;28;45601;-84
2022/10/21 10:21:20;;;;;;;;;3.00;3.00;;;;;25.75;50.51;100557.25;5016199;28;45530;-86
2022/10/21 10:23:50;;;;;;;;;4.67;3.00;;;;;25.79;50.16;100556.69;5032436;28;45553;-86
2022/10/21 10:26:20;;;;;;;;;4.33;3.00;;;;;25.83;50.39;100556.31;5028345;28;45604;-86
2022/10/21 10:28:52;;;;;;;;;3.00;3.00;;;;;25.88;50.07;100537.56;4998525;27;45939;-93
2022/10/21 10:31:29;;;;;;;;;3.00;3.00;;;;;25.97;50.17;100557.31;4993718;27;45401;-94
2022/10/21 10:33:58;;;;;;;;;2.00;2.00;;;;;26.02;49.88;100563.88;4989032;27;45485;-94
2022/10/21 10:36:31;;;;;;;;;2.67;2.00;;;;;26.08;50.11;100565.00;4990675;27;46401;-93
2022/10/21 10:38:58;;;;;;;;;4.67;4.00;;;;;26.14;49.89;100571.53;5062154;27;45393;-95
2022/10/21 10:41:35;;;;;;;;;3.00;3.00;;;;;26.15;49.77;100565.06;4994729;27;45413;-93
2022/10/21 10:44:08;;;;;;;;;2.67;2.67;;;;;26.13;49.81;100557.13;4991133;27;46921;-94
2022/10/21 10:46:35;;;;;;;;;2.67;2.67;;;;;26.11;49.11;100564.59;4990735;27;45273;-96
2022/10/21 10:49:11;;;;;;;;;2.00;2.00;;;;;26.10;49.59;100552.03;4997429;28;45485;-94
2022/10/21 10:51:37;;;;;;;;;2.00;2.00;;;;;26.12;49.55;100560.84;4999012;27;45489;-95
2022/10/21 10:54:16;;;;;;;;;6.33;3.67;;;;;26.14;49.42;100552.50;4991544;27;45839;-89
2022/10/21 10:56:55;;;;;;;;;3.67;3.67;;;;;26.10;49.43;100564.78;5031599;27;45463;-87
2022/10/21 10:59:55;;;;;;;;;2.67;2.67;;;;;26.03;49.06;100557.41;5005216;27;45361;-85
2022/10/21 11:02:29;;;;;;;;;7.33;2.67;;;;;26.01;49.26;100555.91;5005861;27;45472;-88
2022/10/21 11:04:54;;;;;;;;;3.00;3.00;;;;;26.01;49.53;100559.47;4994931;27;46306;-83
2022/10/21 11:07:43;;;;;;;;;4.00;4.00;;;;;26.04;49.99;100561.81;4994090;27;45660;-89
2022/10/21 11:10:37;;;;;;;;;2.33;2.33;;;;;26.11;49.65;100559.16;4994025;27;45403;-83
2022/10/21 11:13:08;;;;;;;;;3.00;2.67;;;;;26.14;49.71;100547.06;5003461;27;45500;-81
2022/10/21 11:15:52;;;;;;;;;2.33;2.33;;;;;26.18;50.23;100551.94;5026782;27;46117;-83
2022/10/21 11:18:47;;;;;;;;;5.67;3.00;;;;;26.24;50.31;100541.31;4984478;27;45535;-83
2022/10/21 11:21:45;;;;;;;;;2.00;2.00;;;;;26.27;50.24;100546.41;4998293;27;45378;-82
2022/10/21 11:24:26;;;;;;;;;4.00;4.00;;;;;26.33;50.11;100555.69;4995463;27;45332;-85
2022/10/21 11:27:19;;;;;;;;;4.00;2.00;;;;;26.37;49.46;100560.56;4987050;27;46098;-87
2022/10/21 11:30:08;;;;;;;;;3.00;3.00;;;;;26.40;49.38;100559.34;5001964;27;45819;-84
2022/10/21 11:32:47;;;;;;;;;2.67;2.67;;;;;26.41;49.60;100556.41;5030294;27;45578;-85
2022/10/21 11:35:21;;;;;;;;;2.67;2.67;;;;;26.46;49.73;100558.56;4994963;27;45439;-86
2022/10/21 11:38:24;;;;;;;;;3.00;2.00;;;;;26.49;49.88;100558.19;4992760;27;46400;-84
2022/10/21 11:41:21;;;;;;;;;5.00;2.00;;;;;26.51;49.47;100563.41;4993731;27;45739;-91
2022/10/21 11:44:07;;;;;;;;;2.00;2.00;;;;;26.54;49.76;100568.47;4994964;27;45441;-90
2022/10/21 11:47:05;;;;;;;;;3.00;3.00;;;;;26.56;49.48;100564.50;4995791;27;45473;-89
2022/10/21 11:49:40;;;;;;;;;3.67;2.00;;;;;26.62;49.58;100556.59;4992025;27;46306;-84
2022/10/21 11:52:36;;;;;;;;;6.00;2.33;;;;;26.65;49.55;100554.34;4993562;27;45397;-84
2022/10/21 11:55:14;;;;;;;;;4.67;4.00;;;;;26.70;50.08;100553.78;4960890;28;45687;-83
2022/10/21 11:57:53;;;;;;;;;5.33;4.67;;;;;26.77;49.26;100559.28;4964113;28;45501;-84
2022/10/21 12:00:24;;;;;;;;;2.33;2.33;;;;;26.77;49.07;100538.31;5043771;28;45412;-83
2022/10/21 12:03:01;;;;;;;;;5.00;5.00;;;;;26.78;48.68;100553.66;4969506;28;45516;-89
2022/10/21 12:05:36;;;;;;;;;5.33;4.00;;;;;26.77;48.65;100551.13;4973589;28;45535;-90
2022/10/21 12:08:08;;;;;;;;;2.00;2.00;;;;;26.70;49.55;100540.97;4964809;28;45510;-91
2022/10/21 12:10:56;;;;;;;;;3.33;3.00;;;;;26.78;49.01;100552.78;4964723;28;46259;-91
2022/10/21 12:13:35;;;;;;;;;2.33;2.00;;;;;26.81;49.06;100552.41;4956518;28;45531;-89
2022/10/21 12:16:06;;;;;;;;;3.33;3.00;;;;;26.83;49.03;100548.44;4966278;28;45413;-90
2022/10/21 12:18:36;;;;;;;;;3.67;3.33;;;;;26.86;49.45;100546.38;4969252;28;45428;-84
2022/10/21 12:21:01;;;;;;;;;3.00;3.00;;;;;26.88;48.98;100541.53;5014199;28;46235;-84
2022/10/21 12:23:29;;;;;;;;;5.33;3.67;;;;;26.90;48.82;100543.06;4952502;28;46237;-84
2022/10/21 12:26:17;;;;;;;;;4.00;2.67;;;;;26.94;49.42;100535.38;4970079;28;45526;-90
2022/10/21 12:29:13;;;;;;;;;3.00;3.00;;;;;26.97;48.94;100537.69;4968513;28;45401;-89
2022/10/21 12:31:51;;;;;;;;;1.67;1.67;;;;;27.02;49.32;100537.09;5000352;27;46670;-85
2022/10/21 12:34:17;;;;;;;;;3.00;3.00;;;;;27.01;49.70;100529.97;4984809;27;45533;-90
2022/10/21 12:36:49;;;;;;;;;2.00;2.00;;;;;27.06;49.76;100528.31;4998826;27;45624;-90
2022/10/21 12:39:32;;;;;;;;;3.00;3.00;;;;;27.12;49.67;100528.56;4993431;27;45538;-88
2022/10/21 12:42:17;;;;;;;;;2.67;2.67;;;;;27.15;49.86;100534.50;4986036;27;46325;-83
2022/10/21 12:44:48;;;;;;;;;4.00;2.33;;;;;27.13;49.43;100519.38;4995870;27;45441;-84
2022/10/21 12:47:29;;;;;;;;;2.00;2.00;;;;;27.18;49.08;100525.06;5005967;27;45629;-85
2022/10/21 12:50:06;;;;;;;;;2.67;2.67;;;;;27.20;49.15;100532.00;4983411;27;45603;-82
2022/10/21 12:52:37;;;;;;;;;3.00;3.00;;;;;27.20;49.11;100526.56;4992137;27;46221;-84
2022/10/21 12:55:07;;;;;;;;;3.33;2.33;;;;;27.23;46.72;100509.81;4985518;27;45595;-82
2022/10/21 12:57:37;;;;;;;;;1.00;1.00;;;;;27.34;46.46;100513.03;4985141;27;47392;-86
2022/10/21 13:00:21;;;;;;;;;1.00;1.00;;;;;27.37;46.44;100520.78;4985876;27;45435;-82
2022/10/21 13:03:03;;;;;;;;;1.67;1.67;;;;;27.36;46.08;100508.22;4984056;27;45451;-83
2022/10/21 13:05:37;;;;;;;;;1.00;1.00;;;;;27.34;45.82;100516.59;4983097;27;46018;-82
2022/10/21 13:08:18;;;;;;;;;1.67;1.67;;;;;27.30;45.35;100520.75;4986897;27;45564;-84
2022/10/21 13:13:42;;;;;;;;;2.00;2.00;;;;;27.15;44.87;100514.56;4984501;27;47308;-90
2022/10/21 13:16:17;;;;;;;;;1.67;1.33;;;;;27.10;45.20;100501.56;4983777;27;45839;-86
2022/10/21 13:18:49;;;;;;;;;2.00;2.00;;;;;27.04;44.54;100499.59;4985462;27;45821;-82
2022/10/21 13:21:46;;;;;;;;;2.00;2.00;;;;;26.96;44.59;100495.16;4980916;28;45467;-87
2022/10/21 13:24:11;;;;;;;;;1.33;1.33;;;;;26.89;44.76;100499.69;4974428;27;46392;-86
2022/10/21 13:26:58;;;;;;;;;1.00;1.00;;;;;26.84;44.81;100500.25;4981507;27;45564;-85
2022/10/21 13:29:35;;;;;;;;;3.00;1.00;;;;;26.84;45.51;100505.72;4982057;28;47208;-77
2022/10/21 13:32:13;;;;;;;;;1.33;1.33;;;;;26.80;45.17;100504.41;4983595;27;45496;-79
2022/10/21 13:34:58;;;;;;;;;1.00;1.00;;;;;26.74;45.30;100505.22;4989644;27;48633;-83
2022/10/21 13:37:47;;;;;;;;;2.00;2.00;;;;;26.66;44.95;100498.03;4983056;27;45591;-89
2022/10/21 13:40:17;;;;;;;;;1.67;1.67;;;;;26.66;45.22;100496.16;4985377;27;45948;-87
2022/10/21 13:42:48;;;;;;;;;1.00;1.00;;;;;26.67;45.33;100503.28;4989081;27;45455;-85
2022/10/21 13:45:41;;;;;;;;;2.00;0.00;;;;;26.66;44.90;100495.31;4980262;27;46068;-84
2022/10/21 13:48:13;;;;;;;;;2.00;0.00;;;;;26.64;45.28;100500.94;4981555;27;47349;-81
2022/10/21 13:50:40;;;;;;;;;1.33;1.33;;;;;26.61;44.54;100500.50;4992266;27;46428;-81
2022/10/21 13:53:27;;;;;;;;;0.67;0.67;;;;;26.59;45.06;100506.13;4984511;27;45525;-81
2022/10/21 13:55:59;;;;;;;;;1.00;1.00;;;;;26.46;45.34;100495.97;4993148;27;47379;-83
2022/10/21 13:58:27;;;;;;;;;2.00;0.00;;;;;26.30;45.91;100500.63;4994004;27;45541;-79
2022/10/21 14:00:52;;;;;;;;;0.00;0.00;;;;;26.18;46.46;100497.53;5023114;27;45469;-82
2022/10/21 14:03:19;;;;;;;;;0.00;0.00;;;;;26.15;46.29;100491.63;5023965;27;45463;-79
2022/10/21 14:05:58;;;;;;;;;0.00;0.00;;;;;26.15;46.51;100505.22;5000123;27;45495;-82
2022/10/21 14:08:30;;;;;;;;;2.00;2.00;;;;;26.14;46.89;100498.97;4988184;27;46127;-81
2022/10/21 14:11:19;;;;;;;;;1.00;1.00;;;;;26.23;47.42;100507.00;5018682;27;45472;-80
2022/10/21 14:13:47;;;;;;;;;2.00;0.00;;;;;26.26;46.71;100502.03;4995835;27;45600;-84
2022/10/21 14:16:32;;;;;;;;;0.00;0.00;;;;;26.32;47.00;100500.41;5002277;27;46412;-83
2022/10/21 14:19:01;;;;;;;;;4.00;1.67;;;;;26.43;46.08;100485.47;4989413;27;45575;-81
2022/10/21 14:21:29;;;;;;;;;1.00;1.00;;;;;26.51;45.68;100482.63;5001018;27;45409;-80
2022/10/21 14:23:56;;;;;;;;;1.00;1.00;;;;;26.56;45.49;100491.03;4994389;27;45473;-81
2022/10/21 14:26:22;;;;;;;;;1.00;1.00;;;;;26.52;45.89;100488.91;4988962;27;48019;-81
2022/10/21 14:28:49;;;;;;;;;0.33;0.33;;;;;26.47;45.91;100497.63;4994614;27;45430;-81
2022/10/21 14:31:16;;;;;;;;;3.00;2.00;;;;;26.50;46.08;100496.41;4995236;27;45399;-82
2022/10/21 14:33:44;;;;;;;;;0.33;0.33;;;;;26.50;46.28;100490.97;4993264;27;45514;-82
2022/10/21 14:36:13;;;;;;;;;2.33;2.00;;;;;26.54;45.73;100495.84;4988500;27;45545;-81
2022/10/21 14:38:43;;;;;;;;;1.33;0.67;;;;;26.50;45.38;100488.25;5007859;27;45441;-81
2022/10/21 14:41:15;;;;;;;;;2.00;2.00;;;;;26.38;45.40;100496.94;4994450;27;45371;-81
2022/10/21 14:43:43;;;;;;;;;1.33;1.33;;;;;26.26;45.92;100499.31;4996148;27;45436;-82
2022/10/21 14:46:09;;;;;;;;;2.33;1.67;;;;;26.22;46.15;100497.13;4993529;27;46214;-81
2022/10/21 14:48:44;;;;;;;;;1.00;1.00;;;;;26.22;46.23;100502.56;4993184;27;45346;-81
2022/10/21 14:51:14;;;;;;;;;1.00;0.67;;;;;26.23;45.91;100502.38;4991739;27;45695;-81
2022/10/21 14:53:51;;;;;;;;;1.00;1.00;;;;;26.20;45.93;100497.34;4994162;27;45762;-81
2022/10/21 14:56:32;;;;;;;;;0.00;0.00;;;;;26.13;45.90;100491.84;5015290;27;46466;-83
2022/10/21 14:59:01;;;;;;;;;1.00;1.00;;;;;26.06;46.48;100496.34;4998274;27;45461;-89
2022/10/21 15:01:26;;;;;;;;;1.33;1.00;;;;;26.07;46.49;100498.03;5001701;27;45805;-87
2022/10/21 15:03:56;;;;;;;;;1.33;1.33;;;;;26.12;46.57;100501.00;4992985;27;45640;-81
2022/10/21 15:06:33;;;;;;;;;1.67;1.67;;;;;26.12;46.12;100489.31;4984566;27;46405;-79
2022/10/21 15:09:00;;;;;;;;;1.33;1.33;;;;;26.06;46.47;100501.78;4989423;28;45497;-76
2022/10/21 15:11:25;;;;;;;;;2.00;1.00;;;;;26.10;46.86;100504.97;4989985;27;46139;-81
2022/10/21 15:14:11;;;;;;;;;1.00;1.00;;;;;26.20;46.08;100510.09;4987510;27;45531;-79
2022/10/21 15:16:44;;;;;;;;;4.67;2.00;;;;;26.27;45.91;100502.88;5007168;27;45534;-77
2022/10/21 15:19:16;;;;;;;;;2.00;1.00;;;;;26.26;46.26;100502.03;4983609;27;45581;-82
2022/10/21 15:22:28;;;;;;;;;2.67;1.00;;;;;26.11;46.83;100488.44;4993451;27;45617;-87
2022/10/21 15:25:05;;;;;;;;;0.67;0.00;;;;;26.09;46.86;100501.41;4989287;28;45455;-92
2022/10/21 15:27:37;;;;;;;;;1.00;1.00;;;;;26.10;47.35;100504.97;4981862;27;47248;-94
2022/10/21 15:30:12;;;;;;;;;0.33;0.33;;;;;26.11;47.44;100515.66;5001005;27;45741;-86
2022/10/21 15:32:38;;;;;;;;;1.00;1.00;;;;;26.10;47.32;100497.66;5009085;27;45319;-81
2022/10/21 15:35:19;;;;;;;;;2.00;1.00;;;;;26.12;47.57;100501.00;4997956;27;45356;-79
2022/10/21 15:37:49;;;;;;;;;0.33;0.00;;;;;26.13;47.35;100505.44;4985315;27;46211;-81
2022/10/21 15:40:15;;;;;;;;;2.67;2.33;;;;;26.10;47.88;100500.38;4996602;27;45489;-81
2022/10/21 15:42:42;;;;;;;;;1.00;1.00;;;;;26.15;47.53;100507.94;5001580;27;45491;-85
2022/10/21 15:45:16;;;;;;;;;2.67;1.00;;;;;26.17;48.01;100509.44;4988437;27;46008;-85
2022/10/21 15:47:41;;;;;;;;;3.67;2.00;;;;;26.18;47.67;100502.13;5008259;27;46772;-86
2022/10/21 15:50:18;;;;;;;;;2.00;2.00;;;;;26.22;47.98;100506.16;4993059;27;45644;-87
2022/10/21 15:52:43;;;;;;;;;0.00;0.00;;;;;26.22;47.74;100492.56;4989946;27;45380;-85
2022/10/21 15:55:14;;;;;;;;;1.67;1.67;;;;;26.24;47.89;100495.91;4991454;27;45296;-85
2022/10/21 15:57:40;;;;;;;;;3.33;1.67;;;;;26.28;47.90;100499.13;4996994;27;45464;-85
2022/10/21 16:00:19;;;;;;;;;1.00;1.00;;;;;26.29;48.36;100500.81;4990991;28;45596;-85
2022/10/21 16:02:50;;;;;;;;;0.33;0.33;;;;;26.29;47.75;100490.75;4989185;28;46603;-79
2022/10/21 16:05:16;;;;;;;;;1.00;1.00;;;;;26.27;47.78;100497.44;4991700;27;45627;-79
2022/10/21 16:07:42;;;;;;;;;1.00;1.00;;;;;26.21;47.84;100482.72;4993542;27;45332;-81
2022/10/21 16:10:16;;;;;;;;;2.00;0.33;;;;;26.31;48.08;100493.28;4998199;28;45913;-83
2022/10/21 16:12:42;;;;;;;;;0.00;0.00;;;;;26.34;48.58;100489.34;4990417;28;45496;-82
2022/10/21 16:15:08;;;;;;;;;1.00;1.00;;;;;26.34;48.04;100495.63;4984418;28;45824;-83
2022/10/21 16:17:34;;;;;;;;;2.00;2.00;;;;;26.31;48.02;100485.13;4992278;27;46434;-84
2022/10/21 16:20:00;;;;;;;;;2.33;1.67;;;;;26.40;48.04;100485.88;4993516;27;45818;-79
2022/10/21 16:22:27;;;;;;;;;0.00;0.00;;;;;26.39;47.91;100490.44;4997813;27;45447;-77
2022/10/21 16:24:52;;;;;;;;;1.00;1.00;;;;;26.34;48.43;100487.47;4988178;27;45407;-79
2022/10/21 16:27:18;;;;;;;;;1.00;1.00;;;;;26.37;48.76;100491.69;4987135;27;46099;-80
2022/10/21 16:29:43;;;;;;;;;0.67;0.67;;;;;26.38;47.95;100496.09;4985997;27;45677;-80
2022/10/21 16:32:10;;;;;;;;;2.00;2.00;;;;;26.35;48.19;100491.88;4989063;27;45377;-79
2022/10/21 16:34:36;;;;;;;;;1.67;1.00;;;;;26.39;48.53;100501.34;4983866;27;46363;-80
2022/10/21 16:37:15;;;;;;;;;2.00;1.00;;;;;26.40;48.07;100499.47;4981650;27;47402;-79
2022/10/21 16:39:40;;;;;;;;;1.00;1.00;;;;;26.40;48.54;100497.56;4990545;27;46834;-83
2022/10/21 16:42:06;;;;;;;;;1.33;1.33;;;;;26.41;48.73;100495.72;4986291;27;46566;-83
2022/10/21 16:44:32;;;;;;;;;3.00;2.00;;;;;26.39;48.18;100495.91;4982945;27;57085;-81
2022/10/21 16:46:57;;;;;;;;;0.67;0.67;;;;;26.42;48.44;100497.38;4987473;27;57217;-83
2022/10/21 16:49:25;;;;;;;;;3.00;2.67;;;;;26.41;48.63;100496.53;4989439;27;45396;-82
2022/10/21 16:51:51;;;;;;;;;2.33;1.33;;;;;26.42;48.74;100505.53;4990181;27;45326;-81
2022/10/21 16:54:18;;;;;;;;;2.33;0.67;;;;;26.40;48.60;100494.03;4992217;28;45266;-80
2022/10/21 16:56:43;;;;;;;;;4.33;1.00;;;;;26.41;48.86;100499.25;4991522;28;46303;-87
2022/10/21 16:59:09;;;;;;;;;1.00;1.00;;;;;26.42;48.94;100509.13;4996382;27;45487;-88
2022/10/21 17:01:35;;;;;;;;;0.33;0.33;;;;;26.40;48.61;100499.47;4983220;27;46784;-85
